Terminal Aerodrome Forecast
Issued by NWS

Home | Current Version | Previous Version | Graphics & Text | Print | Product List | Glossary On
Versions: 1 2 3 4 5 6 7 8 9 10 11 12 13 14 15 16 17 18 19 20 21 22 23 24 25 26 27 28 29 30 31 32
000
FTUS43 KLOT 180900 AAA
TAFORD
TAF AMD
KORD 180903Z 1809/1912 VRB02KT P6SM SKC
     FM181030 02005KT P6SM SCT007 SCT020
      TEMPO 1811/1814 BKN007
     FM181400 03007KT P6SM SCT007 BKN018 BKN050
     FM181800 06010KT P6SM FEW025 SCT050 SCT250
     FM190100 07005KT P6SM SCT250
     FM190900 16006KT P6SM SKC=

USA.gov is the U.S. government's official web portal to all federal, state and local government web resources and services.